sensor_id;sensor_type;location;lat;lon;timestamp;P1;durP1;ratioP1;P2;durP2;ratioP2
14348;SDS011;7258;50.376;8.742;2023-03-01T00:00:30;16.47;;;13.03;;
14348;SDS011;7258;50.376;8.742;2023-03-01T00:02:33;18.00;;;14.07;;
14348;SDS011;7258;50.376;8.742;2023-03-01T00:04:37;20.80;;;13.87;;
14348;SDS011;7258;50.376;8.742;2023-03-01T00:06:40;14.53;;;12.80;;
14348;SDS011;7258;50.376;8.742;2023-03-01T00:08:47;17.93;;;13.57;;
14348;SDS011;7258;50.376;8.742;2023-03-01T00:10:59;17.47;;;14.03;;
14348;SDS011;7258;50.376;8.742;2023-03-01T00:13:05;19.43;;;14.40;;
14348;SDS011;7258;50.376;8.742;2023-03-01T00:15:08;18.10;;;14.27;;
14348;SDS011;7258;50.376;8.742;2023-03-01T00:17:13;19.50;;;14.97;;
14348;SDS011;7258;50.376;8.742;2023-03-01T00:19:16;18.03;;;14.83;;
14348;SDS011;7258;50.376;8.742;2023-03-01T00:21:21;17.80;;;14.67;;
14348;SDS011;7258;50.376;8.742;2023-03-01T00:23:24;17.53;;;14.20;;
14348;SDS011;7258;50.376;8.742;2023-03-01T00:25:28;19.70;;;14.07;;
14348;SDS011;7258;50.376;8.742;2023-03-01T00:27:31;15.27;;;13.33;;
14348;SDS011;7258;50.376;8.742;2023-03-01T00:29:36;16.17;;;13.77;;
14348;SDS011;7258;50.376;8.742;2023-03-01T00:31:39;19.17;;;14.97;;
14348;SDS011;7258;50.376;8.742;2023-03-01T00:33:42;16.73;;;13.63;;
14348;SDS011;7258;50.376;8.742;2023-03-01T00:35:46;17.17;;;14.50;;
14348;SDS011;7258;50.376;8.742;2023-03-01T00:37:51;18.47;;;14.20;;
14348;SDS011;7258;50.376;8.742;2023-03-01T00:39:58;17.57;;;14.03;;
14348;SDS011;7258;50.376;8.742;2023-03-01T00:42:02;16.77;;;14.13;;
14348;SDS011;7258;50.376;8.742;2023-03-01T00:44:05;20.93;;;14.73;;
14348;SDS011;7258;50.376;8.742;2023-03-01T00:46:13;18.10;;;14.30;;
14348;SDS011;7258;50.376;8.742;2023-03-01T00:48:18;18.10;;;13.70;;
14348;SDS011;7258;50.376;8.742;2023-03-01T00:50:21;19.90;;;15.10;;
14348;SDS011;7258;50.376;8.742;2023-03-01T00:52:25;16.70;;;13.77;;
14348;SDS011;7258;50.376;8.742;2023-03-01T00:54:29;18.67;;;13.97;;
14348;SDS011;7258;50.376;8.742;2023-03-01T00:56:32;17.07;;;14.43;;
14348;SDS011;7258;50.376;8.742;2023-03-01T00:58:36;17.17;;;14.73;;
14348;SDS011;7258;50.376;8.742;2023-03-01T01:00:39;19.57;;;16.03;;
14348;SDS011;7258;50.376;8.742;2023-03-01T01:02:44;20.40;;;15.43;;
14348;SDS011;7258;50.376;8.742;2023-03-01T01:04:50;17.00;;;14.63;;
14348;SDS011;7258;50.376;8.742;2023-03-01T01:06:53;20.40;;;15.10;;
14348;SDS011;7258;50.376;8.742;2023-03-01T01:08:57;18.00;;;15.20;;
14348;SDS011;7258;50.376;8.742;2023-03-01T01:11:00;18.67;;;15.20;;
14348;SDS011;7258;50.376;8.742;2023-03-01T01:13:03;18.23;;;15.10;;
14348;SDS011;7258;50.376;8.742;2023-03-01T01:15:07;18.23;;;15.03;;
14348;SDS011;7258;50.376;8.742;2023-03-01T01:17:13;17.90;;;15.27;;
14348;SDS011;7258;50.376;8.742;2023-03-01T01:19:18;16.63;;;14.43;;
14348;SDS011;7258;50.376;8.742;2023-03-01T01:21:22;21.97;;;15.83;;
14348;SDS011;7258;50.376;8.742;2023-03-01T01:23:26;20.73;;;15.53;;
14348;SDS011;7258;50.376;8.742;2023-03-01T01:25:29;18.43;;;15.93;;
14348;SDS011;7258;50.376;8.742;2023-03-01T01:27:32;20.17;;;16.43;;
14348;SDS011;7258;50.376;8.742;2023-03-01T01:29:35;19.47;;;16.30;;
14348;SDS011;7258;50.376;8.742;2023-03-01T01:31:39;19.23;;;16.43;;
14348;SDS011;7258;50.376;8.742;2023-03-01T01:33:44;19.87;;;15.83;;
14348;SDS011;7258;50.376;8.742;2023-03-01T01:35:49;18.70;;;15.47;;
14348;SDS011;7258;50.376;8.742;2023-03-01T01:37:52;18.30;;;15.17;;
14348;SDS011;7258;50.376;8.742;2023-03-01T01:39:55;20.00;;;15.43;;
14348;SDS011;7258;50.376;8.742;2023-03-01T01:41:58;18.57;;;15.33;;
14348;SDS011;7258;50.376;8.742;2023-03-01T01:44:15;21.60;;;16.33;;
14348;SDS011;7258;50.376;8.742;2023-03-01T01:46:21;20.70;;;16.77;;
14348;SDS011;7258;50.376;8.742;2023-03-01T01:48:32;19.90;;;15.93;;
14348;SDS011;7258;50.376;8.742;2023-03-01T01:50:43;22.03;;;17.03;;
14348;SDS011;7258;50.376;8.742;2023-03-01T01:52:50;21.07;;;16.20;;
14348;SDS011;7258;50.376;8.742;2023-03-01T01:54:56;23.53;;;17.57;;
14348;SDS011;7258;50.376;8.742;2023-03-01T01:57:13;23.47;;;17.97;;
14348;SDS011;7258;50.376;8.742;2023-03-01T01:59:20;22.97;;;16.87;;
14348;SDS011;7258;50.376;8.742;2023-03-01T02:01:26;20.07;;;16.93;;
14348;SDS011;7258;50.376;8.742;2023-03-01T02:03:30;20.73;;;16.23;;
14348;SDS011;7258;50.376;8.742;2023-03-01T02:05:40;21.70;;;16.87;;
14348;SDS011;7258;50.376;8.742;2023-03-01T02:07:52;21.90;;;16.47;;
14348;SDS011;7258;50.376;8.742;2023-03-01T02:09:55;20.70;;;16.53;;
14348;SDS011;7258;50.376;8.742;2023-03-01T02:11:59;21.83;;;16.67;;
14348;SDS011;7258;50.376;8.742;2023-03-01T02:14:03;19.97;;;15.93;;
14348;SDS011;7258;50.376;8.742;2023-03-01T02:16:08;24.53;;;18.17;;
14348;SDS011;7258;50.376;8.742;2023-03-01T02:18:12;21.03;;;16.57;;
14348;SDS011;7258;50.376;8.742;2023-03-01T02:20:20;22.60;;;17.37;;
14348;SDS011;7258;50.376;8.742;2023-03-01T02:22:30;20.57;;;15.50;;
14348;SDS011;7258;50.376;8.742;2023-03-01T02:24:38;20.43;;;17.10;;
14348;SDS011;7258;50.376;8.742;2023-03-01T02:26:53;22.93;;;18.17;;
14348;SDS011;7258;50.376;8.742;2023-03-01T02:29:00;22.87;;;16.20;;
14348;SDS011;7258;50.376;8.742;2023-03-01T02:31:03;20.20;;;17.17;;
14348;SDS011;7258;50.376;8.742;2023-03-01T02:33:25;21.97;;;16.77;;
14348;SDS011;7258;50.376;8.742;2023-03-01T02:35:29;24.23;;;17.07;;
14348;SDS011;7258;50.376;8.742;2023-03-01T02:37:34;22.37;;;16.30;;
14348;SDS011;7258;50.376;8.742;2023-03-01T02:39:39;20.83;;;15.97;;
14348;SDS011;7258;50.376;8.742;2023-03-01T02:41:46;23.53;;;17.23;;
14348;SDS011;7258;50.376;8.742;2023-03-01T02:43:51;23.97;;;17.40;;
14348;SDS011;7258;50.376;8.742;2023-03-01T02:45:58;22.43;;;17.40;;
14348;SDS011;7258;50.376;8.742;2023-03-01T02:48:07;22.53;;;17.37;;
14348;SDS011;7258;50.376;8.742;2023-03-01T02:50:12;22.93;;;17.00;;
14348;SDS011;7258;50.376;8.742;2023-03-01T02:52:30;24.07;;;17.53;;
14348;SDS011;7258;50.376;8.742;2023-03-01T02:54:43;22.50;;;17.50;;
14348;SDS011;7258;50.376;8.742;2023-03-01T02:56:51;25.03;;;18.20;;
14348;SDS011;7258;50.376;8.742;2023-03-01T02:58:55;22.60;;;18.07;;
14348;SDS011;7258;50.376;8.742;2023-03-01T03:01:03;23.50;;;17.67;;
14348;SDS011;7258;50.376;8.742;2023-03-01T03:03:06;19.60;;;16.80;;
14348;SDS011;7258;50.376;8.742;2023-03-01T03:05:11;22.53;;;17.53;;
14348;SDS011;7258;50.376;8.742;2023-03-01T03:07:16;22.23;;;17.50;;
14348;SDS011;7258;50.376;8.742;2023-03-01T03:09:19;24.80;;;18.00;;
14348;SDS011;7258;50.376;8.742;2023-03-01T03:11:22;22.57;;;16.63;;
14348;SDS011;7258;50.376;8.742;2023-03-01T03:13:26;21.53;;;16.73;;
14348;SDS011;7258;50.376;8.742;2023-03-01T03:15:29;20.87;;;17.87;;
14348;SDS011;7258;50.376;8.742;2023-03-01T03:17:39;23.23;;;17.53;;
14348;SDS011;7258;50.376;8.742;2023-03-01T03:19:46;21.77;;;17.43;;
14348;SDS011;7258;50.376;8.742;2023-03-01T03:21:49;21.13;;;17.00;;
14348;SDS011;7258;50.376;8.742;2023-03-01T03:23:52;22.57;;;17.43;;
14348;SDS011;7258;50.376;8.742;2023-03-01T03:25:59;21.90;;;17.67;;
14348;SDS011;7258;50.376;8.742;2023-03-01T03:28:02;21.40;;;17.07;;
14348;SDS011;7258;50.376;8.742;2023-03-01T03:30:12;24.10;;;18.30;;
14348;SDS011;7258;50.376;8.742;2023-03-01T03:32:16;24.03;;;17.87;;
14348;SDS011;7258;50.376;8.742;2023-03-01T03:34:21;25.73;;;17.90;;
14348;SDS011;7258;50.376;8.742;2023-03-01T03:36:24;21.63;;;17.00;;
14348;SDS011;7258;50.376;8.742;2023-03-01T03:38:27;20.77;;;17.70;;
14348;SDS011;7258;50.376;8.742;2023-03-01T03:40:32;22.77;;;18.60;;
14348;SDS011;7258;50.376;8.742;2023-03-01T03:42:36;21.23;;;17.37;;
14348;SDS011;7258;50.376;8.742;2023-03-01T03:44:40;25.83;;;18.23;;
14348;SDS011;7258;50.376;8.742;2023-03-01T03:46:43;20.87;;;17.43;;
14348;SDS011;7258;50.376;8.742;2023-03-01T03:48:46;26.30;;;17.87;;
14348;SDS011;7258;50.376;8.742;2023-03-01T03:50:52;22.33;;;17.33;;
14348;SDS011;7258;50.376;8.742;2023-03-01T03:52:59;24.03;;;18.47;;
14348;SDS011;7258;50.376;8.742;2023-03-01T03:55:04;28.70;;;18.93;;
14348;SDS011;7258;50.376;8.742;2023-03-01T03:57:12;24.37;;;18.13;;
14348;SDS011;7258;50.376;8.742;2023-03-01T03:59:15;23.30;;;18.30;;
14348;SDS011;7258;50.376;8.742;2023-03-01T04:01:18;22.60;;;18.33;;
14348;SDS011;7258;50.376;8.742;2023-03-01T04:03:22;21.90;;;17.57;;
14348;SDS011;7258;50.376;8.742;2023-03-01T04:05:26;22.77;;;17.87;;
14348;SDS011;7258;50.376;8.742;2023-03-01T04:07:31;22.83;;;17.77;;
14348;SDS011;7258;50.376;8.742;2023-03-01T04:09:34;23.30;;;17.97;;
14348;SDS011;7258;50.376;8.742;2023-03-01T04:11:38;23.03;;;18.00;;
14348;SDS011;7258;50.376;8.742;2023-03-01T04:13:41;24.07;;;18.37;;
14348;SDS011;7258;50.376;8.742;2023-03-01T04:15:44;25.23;;;18.63;;
14348;SDS011;7258;50.376;8.742;2023-03-01T04:17:50;23.40;;;17.53;;
14348;SDS011;7258;50.376;8.742;2023-03-01T04:19:54;23.80;;;18.27;;
14348;SDS011;7258;50.376;8.742;2023-03-01T04:21:57;23.17;;;18.13;;
14348;SDS011;7258;50.376;8.742;2023-03-01T04:24:03;25.93;;;19.07;;
14348;SDS011;7258;50.376;8.742;2023-03-01T04:26:06;23.20;;;18.10;;
14348;SDS011;7258;50.376;8.742;2023-03-01T04:28:10;25.43;;;18.20;;
14348;SDS011;7258;50.376;8.742;2023-03-01T04:30:13;22.67;;;18.33;;
14348;SDS011;7258;50.376;8.742;2023-03-01T04:32:17;23.30;;;17.50;;
14348;SDS011;7258;50.376;8.742;2023-03-01T04:34:20;22.33;;;17.80;;
14348;SDS011;7258;50.376;8.742;2023-03-01T04:36:25;23.50;;;18.40;;
14348;SDS011;7258;50.376;8.742;2023-03-01T04:38:31;25.30;;;18.40;;
14348;SDS011;7258;50.376;8.742;2023-03-01T04:40:36;23.47;;;17.83;;
14348;SDS011;7258;50.376;8.742;2023-03-01T04:42:39;23.83;;;18.07;;
14348;SDS011;7258;50.376;8.742;2023-03-01T04:44:43;26.20;;;17.57;;
14348;SDS011;7258;50.376;8.742;2023-03-01T04:46:48;24.33;;;18.07;;
14348;SDS011;7258;50.376;8.742;2023-03-01T04:48:51;29.00;;;18.70;;
14348;SDS011;7258;50.376;8.742;2023-03-01T04:50:55;23.33;;;17.63;;
14348;SDS011;7258;50.376;8.742;2023-03-01T04:52:58;22.67;;;17.23;;
14348;SDS011;7258;50.376;8.742;2023-03-01T04:55:02;24.97;;;17.33;;
14348;SDS011;7258;50.376;8.742;2023-03-01T04:57:07;21.53;;;17.57;;
14348;SDS011;7258;50.376;8.742;2023-03-01T04:59:10;21.43;;;16.60;;
14348;SDS011;7258;50.376;8.742;2023-03-01T05:01:14;21.03;;;16.53;;
14348;SDS011;7258;50.376;8.742;2023-03-01T05:03:20;21.47;;;17.83;;
14348;SDS011;7258;50.376;8.742;2023-03-01T05:05:27;21.23;;;17.13;;
14348;SDS011;7258;50.376;8.742;2023-03-01T05:07:32;26.20;;;17.67;;
14348;SDS011;7258;50.376;8.742;2023-03-01T05:09:35;21.20;;;17.03;;
14348;SDS011;7258;50.376;8.742;2023-03-01T05:11:39;23.37;;;18.40;;
14348;SDS011;7258;50.376;8.742;2023-03-01T05:13:44;22.50;;;17.07;;
14348;SDS011;7258;50.376;8.742;2023-03-01T05:15:53;25.47;;;18.67;;
14348;SDS011;7258;50.376;8.742;2023-03-01T05:17:58;23.93;;;17.80;;
14348;SDS011;7258;50.376;8.742;2023-03-01T05:20:02;23.20;;;17.57;;
14348;SDS011;7258;50.376;8.742;2023-03-01T05:22:09;23.77;;;18.47;;
14348;SDS011;7258;50.376;8.742;2023-03-01T05:24:12;22.30;;;17.60;;
14348;SDS011;7258;50.376;8.742;2023-03-01T05:26:16;23.47;;;17.63;;
14348;SDS011;7258;50.376;8.742;2023-03-01T05:28:31;25.60;;;19.17;;
14348;SDS011;7258;50.376;8.742;2023-03-01T05:30:39;21.63;;;17.43;;
14348;SDS011;7258;50.376;8.742;2023-03-01T05:32:43;24.43;;;18.67;;
14348;SDS011;7258;50.376;8.742;2023-03-01T05:34:48;24.73;;;17.90;;
14348;SDS011;7258;50.376;8.742;2023-03-01T05:36:53;21.33;;;16.43;;
14348;SDS011;7258;50.376;8.742;2023-03-01T05:38:56;24.07;;;17.93;;
14348;SDS011;7258;50.376;8.742;2023-03-01T05:41:00;22.97;;;16.93;;
14348;SDS011;7258;50.376;8.742;2023-03-01T05:43:06;25.53;;;18.03;;
14348;SDS011;7258;50.376;8.742;2023-03-01T05:45:21;23.17;;;17.53;;
14348;SDS011;7258;50.376;8.742;2023-03-01T05:47:30;24.63;;;18.73;;
14348;SDS011;7258;50.376;8.742;2023-03-01T05:49:34;22.80;;;18.40;;
14348;SDS011;7258;50.376;8.742;2023-03-01T05:51:40;20.93;;;16.97;;
14348;SDS011;7258;50.376;8.742;2023-03-01T05:53:44;24.33;;;17.50;;
14348;SDS011;7258;50.376;8.742;2023-03-01T05:55:47;23.57;;;18.30;;
14348;SDS011;7258;50.376;8.742;2023-03-01T05:57:53;22.40;;;17.27;;
14348;SDS011;7258;50.376;8.742;2023-03-01T06:02:24;26.40;;;18.83;;
14348;SDS011;7258;50.376;8.742;2023-03-01T06:04:30;23.87;;;18.10;;
14348;SDS011;7258;50.376;8.742;2023-03-01T06:06:36;23.87;;;18.77;;
14348;SDS011;7258;50.376;8.742;2023-03-01T06:08:40;23.37;;;18.77;;
14348;SDS011;7258;50.376;8.742;2023-03-01T06:10:46;24.73;;;17.93;;
14348;SDS011;7258;50.376;8.742;2023-03-01T06:12:57;23.17;;;18.20;;
14348;SDS011;7258;50.376;8.742;2023-03-01T06:15:04;23.67;;;18.67;;
14348;SDS011;7258;50.376;8.742;2023-03-01T06:17:22;21.73;;;18.03;;
14348;SDS011;7258;50.376;8.742;2023-03-01T06:19:27;24.10;;;18.40;;
14348;SDS011;7258;50.376;8.742;2023-03-01T06:21:33;22.33;;;18.07;;
14348;SDS011;7258;50.376;8.742;2023-03-01T06:23:42;31.27;;;18.43;;
14348;SDS011;7258;50.376;8.742;2023-03-01T06:25:53;24.97;;;17.97;;
14348;SDS011;7258;50.376;8.742;2023-03-01T06:27:56;24.00;;;18.77;;
14348;SDS011;7258;50.376;8.742;2023-03-01T06:30:05;26.10;;;19.37;;
14348;SDS011;7258;50.376;8.742;2023-03-01T06:32:32;27.13;;;18.77;;
14348;SDS011;7258;50.376;8.742;2023-03-01T06:34:42;23.33;;;18.67;;
14348;SDS011;7258;50.376;8.742;2023-03-01T06:37:24;24.67;;;18.03;;
14348;SDS011;7258;50.376;8.742;2023-03-01T06:39:27;23.03;;;18.07;;
14348;SDS011;7258;50.376;8.742;2023-03-01T06:41:30;24.03;;;18.97;;
14348;SDS011;7258;50.376;8.742;2023-03-01T06:43:37;25.27;;;18.63;;
14348;SDS011;7258;50.376;8.742;2023-03-01T06:45:41;24.80;;;18.40;;
14348;SDS011;7258;50.376;8.742;2023-03-01T06:47:51;28.27;;;19.33;;
14348;SDS011;7258;50.376;8.742;2023-03-01T06:49:59;25.77;;;19.10;;
14348;SDS011;7258;50.376;8.742;2023-03-01T06:52:02;23.60;;;17.10;;
14348;SDS011;7258;50.376;8.742;2023-03-01T06:54:07;23.37;;;18.33;;
14348;SDS011;7258;50.376;8.742;2023-03-01T06:56:11;23.23;;;18.47;;
14348;SDS011;7258;50.376;8.742;2023-03-01T06:58:14;22.23;;;17.93;;
14348;SDS011;7258;50.376;8.742;2023-03-01T07:00:18;24.20;;;17.63;;
14348;SDS011;7258;50.376;8.742;2023-03-01T07:02:22;25.57;;;17.33;;
14348;SDS011;7258;50.376;8.742;2023-03-01T07:04:28;24.43;;;18.33;;
14348;SDS011;7258;50.376;8.742;2023-03-01T07:06:35;24.27;;;18.90;;
14348;SDS011;7258;50.376;8.742;2023-03-01T07:08:44;22.53;;;17.90;;
14348;SDS011;7258;50.376;8.742;2023-03-01T07:10:48;22.60;;;17.57;;
14348;SDS011;7258;50.376;8.742;2023-03-01T07:12:57;24.50;;;18.60;;
14348;SDS011;7258;50.376;8.742;2023-03-01T07:15:00;21.60;;;18.47;;
14348;SDS011;7258;50.376;8.742;2023-03-01T07:17:03;22.87;;;17.90;;
14348;SDS011;7258;50.376;8.742;2023-03-01T07:19:07;23.20;;;17.73;;
14348;SDS011;7258;50.376;8.742;2023-03-01T07:21:11;23.37;;;18.67;;
14348;SDS011;7258;50.376;8.742;2023-03-01T07:23:17;21.03;;;17.27;;
14348;SDS011;7258;50.376;8.742;2023-03-01T07:25:24;23.00;;;18.37;;
14348;SDS011;7258;50.376;8.742;2023-03-01T07:27:27;24.30;;;18.67;;
14348;SDS011;7258;50.376;8.742;2023-03-01T07:29:31;24.77;;;17.73;;
14348;SDS011;7258;50.376;8.742;2023-03-01T07:31:34;22.10;;;18.27;;
14348;SDS011;7258;50.376;8.742;2023-03-01T07:33:37;22.73;;;18.10;;
14348;SDS011;7258;50.376;8.742;2023-03-01T07:35:41;21.47;;;17.37;;
14348;SDS011;7258;50.376;8.742;2023-03-01T07:37:44;22.43;;;17.60;;
14348;SDS011;7258;50.376;8.742;2023-03-01T07:39:51;22.70;;;18.33;;
14348;SDS011;7258;50.376;8.742;2023-03-01T07:41:54;24.90;;;18.67;;
14348;SDS011;7258;50.376;8.742;2023-03-01T07:43:57;25.37;;;19.07;;
14348;SDS011;7258;50.376;8.742;2023-03-01T07:46:00;23.93;;;18.47;;
14348;SDS011;7258;50.376;8.742;2023-03-01T07:48:04;24.23;;;17.23;;
14348;SDS011;7258;50.376;8.742;2023-03-01T07:50:08;22.80;;;17.60;;
14348;SDS011;7258;50.376;8.742;2023-03-01T07:52:12;24.07;;;18.37;;
14348;SDS011;7258;50.376;8.742;2023-03-01T07:54:15;21.43;;;17.90;;
14348;SDS011;7258;50.376;8.742;2023-03-01T07:56:20;23.57;;;17.93;;
14348;SDS011;7258;50.376;8.742;2023-03-01T07:58:23;21.70;;;17.97;;
14348;SDS011;7258;50.376;8.742;2023-03-01T08:00:27;20.03;;;16.60;;
14348;SDS011;7258;50.376;8.742;2023-03-01T08:02:30;19.33;;;16.90;;
14348;SDS011;7258;50.376;8.742;2023-03-01T08:04:34;21.33;;;17.17;;
14348;SDS011;7258;50.376;8.742;2023-03-01T08:06:37;21.83;;;16.73;;
14348;SDS011;7258;50.376;8.742;2023-03-01T08:08:40;21.13;;;17.23;;
14348;SDS011;7258;50.376;8.742;2023-03-01T08:10:43;22.13;;;16.17;;
14348;SDS011;7258;50.376;8.742;2023-03-01T08:12:48;21.37;;;16.37;;
14348;SDS011;7258;50.376;8.742;2023-03-01T08:14:53;23.43;;;17.23;;
14348;SDS011;7258;50.376;8.742;2023-03-01T08:16:56;22.13;;;16.63;;
14348;SDS011;7258;50.376;8.742;2023-03-01T08:19:03;21.40;;;16.93;;
14348;SDS011;7258;50.376;8.742;2023-03-01T08:21:07;21.80;;;17.73;;
14348;SDS011;7258;50.376;8.742;2023-03-01T08:23:12;18.90;;;15.80;;
14348;SDS011;7258;50.376;8.742;2023-03-01T08:25:15;19.83;;;15.73;;
14348;SDS011;7258;50.376;8.742;2023-03-01T08:27:18;19.63;;;15.93;;
14348;SDS011;7258;50.376;8.742;2023-03-01T08:29:23;18.40;;;16.33;;
14348;SDS011;7258;50.376;8.742;2023-03-01T08:31:27;21.10;;;16.90;;
14348;SDS011;7258;50.376;8.742;2023-03-01T08:33:32;21.33;;;16.73;;
14348;SDS011;7258;50.376;8.742;2023-03-01T08:35:35;20.83;;;15.23;;
14348;SDS011;7258;50.376;8.742;2023-03-01T08:37:38;19.93;;;15.90;;
14348;SDS011;7258;50.376;8.742;2023-03-01T08:39:41;17.47;;;15.13;;
14348;SDS011;7258;50.376;8.742;2023-03-01T08:41:44;18.37;;;15.40;;
14348;SDS011;7258;50.376;8.742;2023-03-01T08:43:48;18.27;;;16.17;;
14348;SDS011;7258;50.376;8.742;2023-03-01T08:45:53;19.63;;;15.13;;
14348;SDS011;7258;50.376;8.742;2023-03-01T08:47:56;18.77;;;15.67;;
14348;SDS011;7258;50.376;8.742;2023-03-01T08:49:58;18.13;;;15.50;;
14348;SDS011;7258;50.376;8.742;2023-03-01T08:52:01;18.07;;;15.83;;
14348;SDS011;7258;50.376;8.742;2023-03-01T08:54:05;19.73;;;16.07;;
14348;SDS011;7258;50.376;8.742;2023-03-01T08:56:09;17.77;;;14.67;;
14348;SDS011;7258;50.376;8.742;2023-03-01T08:58:12;17.50;;;14.83;;
14348;SDS011;7258;50.376;8.742;2023-03-01T09:00:15;19.57;;;16.03;;
14348;SDS011;7258;50.376;8.742;2023-03-01T09:02:20;17.50;;;15.33;;
14348;SDS011;7258;50.376;8.742;2023-03-01T09:04:23;17.40;;;15.20;;
14348;SDS011;7258;50.376;8.742;2023-03-01T09:06:26;17.43;;;14.90;;
14348;SDS011;7258;50.376;8.742;2023-03-01T09:08:29;20.20;;;15.23;;
14348;SDS011;7258;50.376;8.742;2023-03-01T09:10:34;17.93;;;15.00;;
14348;SDS011;7258;50.376;8.742;2023-03-01T09:12:40;16.13;;;14.43;;
14348;SDS011;7258;50.376;8.742;2023-03-01T09:14:43;20.00;;;14.57;;
14348;SDS011;7258;50.376;8.742;2023-03-01T09:16:48;16.60;;;14.27;;
14348;SDS011;7258;50.376;8.742;2023-03-01T09:18:53;17.83;;;15.30;;
14348;SDS011;7258;50.376;8.742;2023-03-01T09:21:00;18.13;;;14.43;;
14348;SDS011;7258;50.376;8.742;2023-03-01T09:23:03;19.03;;;14.60;;
14348;SDS011;7258;50.376;8.742;2023-03-01T09:25:07;16.47;;;14.57;;
14348;SDS011;7258;50.376;8.742;2023-03-01T09:27:10;19.33;;;14.53;;
14348;SDS011;7258;50.376;8.742;2023-03-01T09:29:15;17.70;;;14.47;;
14348;SDS011;7258;50.376;8.742;2023-03-01T09:31:19;16.93;;;15.13;;
14348;SDS011;7258;50.376;8.742;2023-03-01T09:33:24;15.47;;;13.87;;
14348;SDS011;7258;50.376;8.742;2023-03-01T09:35:28;16.07;;;13.37;;
14348;SDS011;7258;50.376;8.742;2023-03-01T09:37:31;16.57;;;13.80;;
14348;SDS011;7258;50.376;8.742;2023-03-01T09:39:34;16.13;;;13.27;;
14348;SDS011;7258;50.376;8.742;2023-03-01T09:41:42;16.70;;;14.03;;
14348;SDS011;7258;50.376;8.742;2023-03-01T09:43:49;16.20;;;13.07;;
14348;SDS011;7258;50.376;8.742;2023-03-01T09:45:58;19.13;;;14.47;;
14348;SDS011;7258;50.376;8.742;2023-03-01T09:48:04;17.67;;;14.30;;
14348;SDS011;7258;50.376;8.742;2023-03-01T09:50:15;15.87;;;13.40;;
14348;SDS011;7258;50.376;8.742;2023-03-01T09:52:23;15.97;;;13.50;;
14348;SDS011;7258;50.376;8.742;2023-03-01T09:54:31;16.17;;;13.97;;
14348;SDS011;7258;50.376;8.742;2023-03-01T09:56:36;17.33;;;13.80;;
14348;SDS011;7258;50.376;8.742;2023-03-01T09:58:46;16.83;;;13.53;;
14348;SDS011;7258;50.376;8.742;2023-03-01T10:00:53;15.77;;;14.10;;
14348;SDS011;7258;50.376;8.742;2023-03-01T10:03:03;15.87;;;13.70;;
14348;SDS011;7258;50.376;8.742;2023-03-01T10:05:26;15.73;;;13.97;;
14348;SDS011;7258;50.376;8.742;2023-03-01T10:07:39;14.20;;;12.77;;
14348;SDS011;7258;50.376;8.742;2023-03-01T10:09:51;14.20;;;12.70;;
14348;SDS011;7258;50.376;8.742;2023-03-01T10:11:54;15.70;;;13.77;;
14348;SDS011;7258;50.376;8.742;2023-03-01T10:14:01;14.83;;;13.03;;
14348;SDS011;7258;50.376;8.742;2023-03-01T10:16:09;15.27;;;13.67;;
14348;SDS011;7258;50.376;8.742;2023-03-01T10:18:18;14.57;;;13.07;;
14348;SDS011;7258;50.376;8.742;2023-03-01T10:20:26;16.13;;;13.80;;
14348;SDS011;7258;50.376;8.742;2023-03-01T10:22:34;15.10;;;13.47;;
14348;SDS011;7258;50.376;8.742;2023-03-01T10:24:40;14.63;;;12.47;;
14348;SDS011;7258;50.376;8.742;2023-03-01T10:26:48;15.50;;;12.70;;
14348;SDS011;7258;50.376;8.742;2023-03-01T10:28:58;14.53;;;12.83;;
14348;SDS011;7258;50.376;8.742;2023-03-01T10:31:07;15.47;;;12.67;;
14348;SDS011;7258;50.376;8.742;2023-03-01T10:33:16;14.70;;;12.50;;
14348;SDS011;7258;50.376;8.742;2023-03-01T10:35:23;15.73;;;12.63;;
14348;SDS011;7258;50.376;8.742;2023-03-01T10:37:28;15.27;;;13.47;;
14348;SDS011;7258;50.376;8.742;2023-03-01T10:39:31;13.47;;;12.07;;
14348;SDS011;7258;50.376;8.742;2023-03-01T10:41:37;13.97;;;12.47;;
14348;SDS011;7258;50.376;8.742;2023-03-01T10:43:58;13.90;;;11.97;;
14348;SDS011;7258;50.376;8.742;2023-03-01T10:46:01;16.20;;;12.90;;
14348;SDS011;7258;50.376;8.742;2023-03-01T10:48:12;13.80;;;12.37;;
14348;SDS011;7258;50.376;8.742;2023-03-01T10:50:20;15.93;;;13.20;;
14348;SDS011;7258;50.376;8.742;2023-03-01T10:52:26;16.30;;;12.90;;
14348;SDS011;7258;50.376;8.742;2023-03-01T10:54:32;15.63;;;12.97;;
14348;SDS011;7258;50.376;8.742;2023-03-01T10:56:47;14.27;;;12.00;;
14348;SDS011;7258;50.376;8.742;2023-03-01T10:58:58;16.53;;;12.00;;
14348;SDS011;7258;50.376;8.742;2023-03-01T11:01:03;13.67;;;12.17;;
14348;SDS011;7258;50.376;8.742;2023-03-01T11:03:11;13.13;;;11.73;;
14348;SDS011;7258;50.376;8.742;2023-03-01T11:05:19;13.83;;;11.93;;
14348;SDS011;7258;50.376;8.742;2023-03-01T11:07:25;13.10;;;11.67;;
14348;SDS011;7258;50.376;8.742;2023-03-01T11:09:30;12.53;;;11.13;;
14348;SDS011;7258;50.376;8.742;2023-03-01T11:11:38;13.70;;;11.57;;
14348;SDS011;7258;50.376;8.742;2023-03-01T11:13:49;13.80;;;11.93;;
14348;SDS011;7258;50.376;8.742;2023-03-01T11:15:58;12.97;;;10.73;;
14348;SDS011;7258;50.376;8.742;2023-03-01T11:18:03;11.27;;;10.10;;
14348;SDS011;7258;50.376;8.742;2023-03-01T11:20:16;14.07;;;11.63;;
14348;SDS011;7258;50.376;8.742;2023-03-01T11:22:28;12.30;;;10.70;;
14348;SDS011;7258;50.376;8.742;2023-03-01T11:24:34;13.93;;;11.30;;
14348;SDS011;7258;50.376;8.742;2023-03-01T11:26:44;14.80;;;11.93;;
14348;SDS011;7258;50.376;8.742;2023-03-01T11:28:53;12.93;;;11.63;;
14348;SDS011;7258;50.376;8.742;2023-03-01T11:31:00;14.43;;;11.37;;
14348;SDS011;7258;50.376;8.742;2023-03-01T11:33:12;13.40;;;11.17;;
14348;SDS011;7258;50.376;8.742;2023-03-01T11:35:20;12.17;;;10.83;;
14348;SDS011;7258;50.376;8.742;2023-03-01T11:37:30;12.37;;;10.97;;
14348;SDS011;7258;50.376;8.742;2023-03-01T11:39:37;12.33;;;11.03;;
14348;SDS011;7258;50.376;8.742;2023-03-01T11:41:46;15.33;;;11.13;;
14348;SDS011;7258;50.376;8.742;2023-03-01T11:43:56;14.00;;;10.90;;
14348;SDS011;7258;50.376;8.742;2023-03-01T11:48:49;11.37;;;10.17;;
14348;SDS011;7258;50.376;8.742;2023-03-01T11:51:00;11.53;;;10.33;;
14348;SDS011;7258;50.376;8.742;2023-03-01T11:53:16;12.57;;;11.27;;
14348;SDS011;7258;50.376;8.742;2023-03-01T11:55:36;12.07;;;10.27;;
14348;SDS011;7258;50.376;8.742;2023-03-01T11:58:03;11.57;;;10.23;;
14348;SDS011;7258;50.376;8.742;2023-03-01T12:00:25;11.33;;;9.87;;
14348;SDS011;7258;50.376;8.742;2023-03-01T12:02:49;11.23;;;10.03;;
14348;SDS011;7258;50.376;8.742;2023-03-01T12:05:11;13.47;;;10.27;;
14348;SDS011;7258;50.376;8.742;2023-03-01T12:07:27;11.70;;;9.80;;
14348;SDS011;7258;50.376;8.742;2023-03-01T12:09:38;12.37;;;10.40;;
14348;SDS011;7258;50.376;8.742;2023-03-01T12:11:55;11.30;;;10.17;;
14348;SDS011;7258;50.376;8.742;2023-03-01T12:16:53;13.27;;;10.13;;
14348;SDS011;7258;50.376;8.742;2023-03-01T12:19:13;11.00;;;9.80;;
14348;SDS011;7258;50.376;8.742;2023-03-01T12:21:30;12.03;;;10.50;;
14348;SDS011;7258;50.376;8.742;2023-03-01T12:26:25;11.27;;;10.07;;
14348;SDS011;7258;50.376;8.742;2023-03-01T12:28:35;10.17;;;9.17;;
14348;SDS011;7258;50.376;8.742;2023-03-01T12:31:00;12.77;;;9.90;;
14348;SDS011;7258;50.376;8.742;2023-03-01T12:33:19;9.80;;;8.77;;
14348;SDS011;7258;50.376;8.742;2023-03-01T12:35:35;10.37;;;9.27;;
14348;SDS011;7258;50.376;8.742;2023-03-01T12:37:56;10.50;;;9.07;;
14348;SDS011;7258;50.376;8.742;2023-03-01T12:40:16;12.20;;;9.57;;
14348;SDS011;7258;50.376;8.742;2023-03-01T12:42:27;11.23;;;9.20;;